createdAt,value
2023-12-16T00:00:02.684Z,20.52
2023-12-16T00:01:45.410Z,20.92
2023-12-16T00:03:17.770Z,20.80
2023-12-16T00:04:52.494Z,23.40
2023-12-16T00:06:26.153Z,23.95
2023-12-16T00:07:59.388Z,29.92
2023-12-16T00:09:31.618Z,25.45
2023-12-16T00:11:05.549Z,25.67
2023-12-16T00:12:38.277Z,24.70
2023-12-16T00:14:11.864Z,23.30
2023-12-16T00:15:44.128Z,21.50
2023-12-16T00:17:17.416Z,22.27
2023-12-16T00:18:51.663Z,23.25
2023-12-16T00:20:25.416Z,22.10
2023-12-16T00:21:58.777Z,23.27
2023-12-16T00:23:31.381Z,23.63
2023-12-16T00:25:05.650Z,22.60
2023-12-16T00:26:38.923Z,21.88
2023-12-16T00:28:11.176Z,22.23
2023-12-16T00:29:45.480Z,26.00
2023-12-16T00:31:17.934Z,25.25
2023-12-16T00:32:51.381Z,32.67
2023-12-16T00:34:23.760Z,28.48
2023-12-16T00:35:58.416Z,30.52
2023-12-16T00:37:30.816Z,35.75
2023-12-16T00:39:04.322Z,32.88
2023-12-16T00:40:36.477Z,26.85
2023-12-16T00:42:09.757Z,25.98
2023-12-16T00:43:42.103Z,26.02
2023-12-16T00:45:17.439Z,33.35
2023-12-16T00:46:50.886Z,27.55
2023-12-16T00:48:24.182Z,29.58
2023-12-16T00:49:56.703Z,28.70
2023-12-16T00:51:31.492Z,27.33
2023-12-16T00:53:03.639Z,26.98
2023-12-16T00:54:36.865Z,29.30
2023-12-16T00:56:10.714Z,30.40
2023-12-16T00:57:43.953Z,32.25
2023-12-16T00:59:16.208Z,31.02
2023-12-16T01:00:49.439Z,29.13
2023-12-16T01:02:21.881Z,28.58
2023-12-16T01:03:55.269Z,28.58
2023-12-16T01:05:27.659Z,34.92
2023-12-16T01:07:03.534Z,30.95
2023-12-16T01:08:36.107Z,35.45
2023-12-16T01:10:10.138Z,32.53
2023-12-16T01:11:42.469Z,33.25
2023-12-16T01:13:15.771Z,33.83
2023-12-16T01:14:48.285Z,30.73
2023-12-16T01:16:21.900Z,30.17
2023-12-16T01:17:54.384Z,28.95
2023-12-16T01:19:28.349Z,26.65
2023-12-16T01:21:05.299Z,27.88
2023-12-16T01:22:40.121Z,27.13
2023-12-16T01:24:12.276Z,23.42
2023-12-16T01:25:45.811Z,23.10
2023-12-16T01:27:18.251Z,18.02
2023-12-16T01:28:51.512Z,26.95
2023-12-16T01:30:26.541Z,21.35
2023-12-16T01:31:59.876Z,16.85
2023-12-16T01:33:33.295Z,15.55
2023-12-16T01:35:06.251Z,18.50
2023-12-16T01:36:39.438Z,23.45
2023-12-16T01:38:14.095Z,18.60
2023-12-16T01:39:46.667Z,17.80
2023-12-16T01:41:20.035Z,15.43
2023-12-16T01:42:52.630Z,13.60
2023-12-16T01:44:26.054Z,14.93
2023-12-16T01:46:03.236Z,15.35
2023-12-16T01:47:37.488Z,17.20
2023-12-16T01:49:10.916Z,15.55
2023-12-16T01:50:44.264Z,14.77
2023-12-16T01:52:16.964Z,14.23
2023-12-16T01:53:51.912Z,13.85
2023-12-16T01:55:24.540Z,10.35
2023-12-16T01:56:59.650Z,10.00
2023-12-16T01:58:33.033Z,10.57
2023-12-16T02:00:06.392Z,10.68
2023-12-16T02:01:46.342Z,10.73
2023-12-16T02:03:20.091Z,10.88
2023-12-16T02:04:53.556Z,11.35
2023-12-16T02:06:29.102Z,9.77
2023-12-16T02:08:02.337Z,9.32
2023-12-16T02:09:36.143Z,9.80
2023-12-16T02:11:11.624Z,9.45
2023-12-16T02:12:45.181Z,7.43
2023-12-16T02:14:17.435Z,8.07
2023-12-16T02:15:50.765Z,5.97
2023-12-16T02:17:23.198Z,11.38
2023-12-16T02:18:56.875Z,8.35
2023-12-16T02:20:29.304Z,6.43
2023-12-16T02:22:02.688Z,6.93
2023-12-16T02:23:38.751Z,7.80
2023-12-16T02:25:13.492Z,7.25
2023-12-16T02:26:46.821Z,6.57
2023-12-16T02:28:19.200Z,6.40
2023-12-16T02:29:52.648Z,6.55
2023-12-16T02:31:26.044Z,7.10
2023-12-16T02:32:58.357Z,7.95
2023-12-16T02:34:32.121Z,7.30
2023-12-16T02:36:05.254Z,6.90
2023-12-16T02:37:38.884Z,5.78
2023-12-16T02:39:12.646Z,7.68
2023-12-16T02:40:46.178Z,6.70
2023-12-16T02:42:18.541Z,7.07
2023-12-16T02:43:51.926Z,6.72
2023-12-16T02:45:25.219Z,6.38
2023-12-16T02:46:58.403Z,6.63
2023-12-16T02:48:31.840Z,6.93
2023-12-16T02:50:06.744Z,6.97
2023-12-16T02:51:40.027Z,7.00
2023-12-16T02:53:12.203Z,6.78
2023-12-16T02:54:46.840Z,7.88
2023-12-16T02:56:19.217Z,7.15
2023-12-16T02:57:52.612Z,5.88
2023-12-16T02:59:24.853Z,5.82
2023-12-16T03:00:58.187Z,4.47
2023-12-16T03:02:30.486Z,2.38
2023-12-16T03:04:03.838Z,4.35
2023-12-16T03:05:36.168Z,3.90
2023-12-16T03:07:09.697Z,3.40
2023-12-16T03:08:42.044Z,5.55
2023-12-16T03:10:16.843Z,5.90
2023-12-16T03:11:51.135Z,5.95
2023-12-16T03:13:24.502Z,5.63
2023-12-16T03:14:56.851Z,8.90
2023-12-16T03:16:30.194Z,7.90
2023-12-16T03:18:02.575Z,7.45
2023-12-16T03:19:35.939Z,6.75
2023-12-16T03:21:08.634Z,6.20
2023-12-16T03:22:41.970Z,6.05
2023-12-16T03:24:16.354Z,6.20
2023-12-16T03:25:51.221Z,6.32
2023-12-16T03:27:24.555Z,5.63
2023-12-16T03:28:57.110Z,5.50
2023-12-16T03:30:30.471Z,5.22
2023-12-16T03:32:02.818Z,4.63
2023-12-16T03:33:36.315Z,3.40
2023-12-16T03:35:09.437Z,3.50
2023-12-16T03:36:42.697Z,4.50
2023-12-16T03:38:14.920Z,5.22
2023-12-16T03:39:48.226Z,4.00
2023-12-16T03:41:21.964Z,5.15
2023-12-16T03:42:55.286Z,4.47
2023-12-16T03:44:27.489Z,4.03
2023-12-16T03:46:00.828Z,3.92
2023-12-16T03:47:33.285Z,3.38
2023-12-16T03:49:06.578Z,3.45
2023-12-16T03:50:38.863Z,4.15
2023-12-16T03:52:13.297Z,4.50
2023-12-16T03:53:45.596Z,5.82
2023-12-16T03:55:18.948Z,4.30
2023-12-16T03:56:52.569Z,4.20
2023-12-16T03:58:26.099Z,3.75
2023-12-16T03:59:58.324Z,3.72
2023-12-16T04:01:31.727Z,4.32
2023-12-16T04:03:04.501Z,5.18
2023-12-16T04:04:37.969Z,5.35
2023-12-16T04:06:13.625Z,5.18
2023-12-16T04:07:47.027Z,3.80
2023-12-16T04:09:19.217Z,4.70
2023-12-16T04:10:52.588Z,4.78
2023-12-16T04:12:26.205Z,4.60
2023-12-16T04:13:59.479Z,4.75
2023-12-16T04:15:31.696Z,6.25
2023-12-16T04:17:05.096Z,6.18
2023-12-16T04:18:37.554Z,5.65
2023-12-16T04:20:11.575Z,9.70
2023-12-16T04:21:43.866Z,5.30
2023-12-16T04:23:17.336Z,8.60
2023-12-16T04:24:51.828Z,6.78
2023-12-16T04:26:25.283Z,6.10
2023-12-16T04:27:58.946Z,8.05
2023-12-16T04:29:32.378Z,8.48
2023-12-16T04:31:04.959Z,5.20
2023-12-16T04:32:38.273Z,3.75
2023-12-16T04:34:10.770Z,5.18
2023-12-16T04:35:45.597Z,8.15
2023-12-16T04:37:18.846Z,4.55
2023-12-16T04:38:51.116Z,5.68
2023-12-16T04:40:24.447Z,6.20
2023-12-16T04:41:57.114Z,6.75
2023-12-16T04:43:31.856Z,7.57
2023-12-16T04:45:05.118Z,11.50
2023-12-16T04:46:38.373Z,10.10
2023-12-16T04:48:10.789Z,6.38
2023-12-16T04:49:44.179Z,5.03
2023-12-16T04:51:16.518Z,4.65
2023-12-16T04:52:49.783Z,4.32
2023-12-16T04:54:22.232Z,5.70
2023-12-16T04:55:55.389Z,5.65
2023-12-16T04:57:27.613Z,7.18
2023-12-16T04:59:02.253Z,9.50
2023-12-16T05:00:34.686Z,10.27
2023-12-16T05:02:07.949Z,10.18
2023-12-16T05:03:41.848Z,7.32
2023-12-16T05:05:15.290Z,7.90
2023-12-16T05:06:47.783Z,8.70
2023-12-16T05:08:21.695Z,10.45
2023-12-16T05:09:54.073Z,9.75
2023-12-16T05:11:27.346Z,9.68
2023-12-16T05:12:59.761Z,8.70
2023-12-16T05:14:34.365Z,9.80
2023-12-16T05:16:09.505Z,15.82
2023-12-16T05:17:43.317Z,18.02
2023-12-16T05:19:16.209Z,26.77
2023-12-16T05:20:49.519Z,24.52
2023-12-16T05:22:21.911Z,21.40
2023-12-16T05:23:55.118Z,24.48
2023-12-16T05:25:28.694Z,21.88
2023-12-16T05:27:01.952Z,18.85
2023-12-16T05:28:34.343Z,24.33
2023-12-16T05:30:11.028Z,25.17
2023-12-16T05:31:43.731Z,16.98
2023-12-16T05:33:17.026Z,10.52
2023-12-16T05:34:49.255Z,14.13
2023-12-16T05:36:22.809Z,15.30
2023-12-16T05:37:55.320Z,13.40
2023-12-16T05:39:31.136Z,10.23
2023-12-16T05:41:04.251Z,11.57
2023-12-16T05:42:37.910Z,12.27
2023-12-16T05:44:10.315Z,19.10
2023-12-16T05:45:45.051Z,175.43
2023-12-16T05:47:17.388Z,25.70
2023-12-16T05:48:50.717Z,17.63
2023-12-16T05:50:23.442Z,11.60
2023-12-16T05:51:56.913Z,9.20
2023-12-16T05:53:29.201Z,13.98
2023-12-16T05:55:02.551Z,8.15
2023-12-16T05:56:35.067Z,7.30
2023-12-16T05:58:08.632Z,5.25
2023-12-16T05:59:40.887Z,5.70
2023-12-16T06:01:21.280Z,7.03
2023-12-16T06:02:56.796Z,16.83
2023-12-16T06:04:30.773Z,8.70
2023-12-16T06:06:03.259Z,7.75
2023-12-16T06:07:36.679Z,8.70
2023-12-16T06:09:09.401Z,8.73
2023-12-16T06:10:42.842Z,13.63
2023-12-16T06:12:15.100Z,11.50
2023-12-16T06:13:49.228Z,13.93
2023-12-16T06:15:22.132Z,17.73
2023-12-16T06:16:56.918Z,26.30
2023-12-16T06:18:29.230Z,22.58
2023-12-16T06:20:03.250Z,23.45
2023-12-16T06:21:35.666Z,33.88
2023-12-16T06:23:08.807Z,19.60
2023-12-16T06:24:41.171Z,21.20
2023-12-16T06:26:14.445Z,18.02
2023-12-16T06:27:46.745Z,13.75
2023-12-16T06:29:19.933Z,11.65
2023-12-16T06:30:52.235Z,13.23
2023-12-16T06:32:27.015Z,12.70
2023-12-16T06:33:59.386Z,12.75
2023-12-16T06:35:32.617Z,12.40
2023-12-16T06:37:04.849Z,32.28
2023-12-16T06:38:38.228Z,37.22
2023-12-16T06:40:10.802Z,22.52
2023-12-16T06:41:44.038Z,22.02
2023-12-16T06:43:17.635Z,19.88
2023-12-16T06:44:53.869Z,16.60
2023-12-16T06:46:26.172Z,16.05
2023-12-16T06:48:00.963Z,17.33
2023-12-16T06:49:33.287Z,12.75
2023-12-16T06:51:06.839Z,12.57
2023-12-16T06:52:39.148Z,13.57
2023-12-16T06:54:12.449Z,12.90
2023-12-16T06:55:44.806Z,12.55
2023-12-16T06:57:18.003Z,12.43
2023-12-16T06:58:51.349Z,14.07
2023-12-16T07:00:24.562Z,25.40
2023-12-16T07:01:59.869Z,24.55
2023-12-16T07:03:34.595Z,53.83
2023-12-16T07:05:08.364Z,55.05
2023-12-16T07:06:43.718Z,22.70
2023-12-16T07:08:16.046Z,28.73
2023-12-16T07:09:49.506Z,23.38
2023-12-16T07:11:22.298Z,26.20
2023-12-16T07:12:55.540Z,23.20
2023-12-16T07:14:30.104Z,23.20
2023-12-16T07:16:05.591Z,27.48
2023-12-16T07:17:38.365Z,24.40
2023-12-16T07:19:14.487Z,28.95
2023-12-16T07:20:46.755Z,21.85
2023-12-16T07:22:20.199Z,21.15
2023-12-16T07:23:52.881Z,19.75
2023-12-16T07:25:26.214Z,25.27
2023-12-16T07:26:58.410Z,20.40
2023-12-16T07:28:31.817Z,19.92
2023-12-16T07:30:04.941Z,17.58
2023-12-16T07:31:38.303Z,22.10
2023-12-16T07:33:10.823Z,18.20
2023-12-16T07:34:45.516Z,16.25
2023-12-16T07:36:17.843Z,12.70
2023-12-16T07:37:51.110Z,10.35
2023-12-16T07:39:23.418Z,9.85
2023-12-16T07:40:56.759Z,11.00
2023-12-16T07:42:29.034Z,13.98
2023-12-16T07:44:02.367Z,13.82
2023-12-16T07:45:36.378Z,11.77
2023-12-16T07:47:09.670Z,12.65
2023-12-16T07:48:44.128Z,14.35
2023-12-16T07:50:21.204Z,28.23
2023-12-16T07:51:56.127Z,17.25
2023-12-16T07:53:28.502Z,23.85
2023-12-16T07:55:01.898Z,25.55
2023-12-16T07:56:35.151Z,28.92
2023-12-16T07:58:07.992Z,35.55
2023-12-16T07:59:42.432Z,33.35
2023-12-16T08:01:15.386Z,33.03
2023-12-16T08:02:48.754Z,36.22
2023-12-16T08:04:21.062Z,36.25
2023-12-16T08:05:55.755Z,40.38
2023-12-16T08:07:28.301Z,61.47
2023-12-16T08:09:01.534Z,39.00
2023-12-16T08:10:33.776Z,29.75
2023-12-16T08:12:07.974Z,24.48
2023-12-16T08:13:40.384Z,16.38
2023-12-16T08:15:13.647Z,12.85
2023-12-16T08:16:45.843Z,13.32
2023-12-16T08:18:21.706Z,15.45
2023-12-16T08:19:54.852Z,14.88
2023-12-16T08:21:29.481Z,17.42
2023-12-16T08:23:03.651Z,18.05
2023-12-16T08:24:36.857Z,17.38
2023-12-16T08:26:12.007Z,13.85
2023-12-16T08:27:45.218Z,13.88
2023-12-16T08:29:17.577Z,17.67
2023-12-16T08:30:51.893Z,19.73
2023-12-16T08:32:24.353Z,19.42
2023-12-16T08:33:57.719Z,14.98
2023-12-16T08:35:30.164Z,10.80
2023-12-16T08:37:05.161Z,14.05
2023-12-16T08:38:37.596Z,10.45
2023-12-16T08:40:12.014Z,29.48
2023-12-16T08:41:44.652Z,31.10
2023-12-16T08:43:18.005Z,23.27
2023-12-16T08:44:50.620Z,24.95
2023-12-16T08:46:26.074Z,27.40
2023-12-16T08:47:58.318Z,24.42
2023-12-16T08:49:34.116Z,21.13
2023-12-16T08:51:06.824Z,26.75
2023-12-16T08:52:41.497Z,18.42
2023-12-16T08:54:13.861Z,23.58
2023-12-16T08:55:47.332Z,21.80
2023-12-16T08:57:19.824Z,21.83
2023-12-16T08:58:53.119Z,41.38
2023-12-16T09:00:25.375Z,20.48
2023-12-16T09:01:59.736Z,20.75
2023-12-16T09:03:32.194Z,20.05
2023-12-16T09:05:05.968Z,15.90
2023-12-16T09:06:42.972Z,32.10
2023-12-16T09:08:17.899Z,27.30
2023-12-16T09:09:50.263Z,25.05
2023-12-16T09:11:23.491Z,25.90
2023-12-16T09:12:55.764Z,17.73
2023-12-16T09:14:29.137Z,16.65
2023-12-16T09:16:01.603Z,14.80
2023-12-16T09:17:34.881Z,16.15
2023-12-16T09:19:08.987Z,15.27
2023-12-16T09:20:42.437Z,18.58
2023-12-16T09:22:17.762Z,24.13
2023-12-16T09:23:51.344Z,20.90
2023-12-16T09:25:24.619Z,18.75
2023-12-16T09:26:57.012Z,16.48
2023-12-16T09:28:30.450Z,21.80
2023-12-16T09:30:03.621Z,19.50
2023-12-16T09:31:37.150Z,18.08
2023-12-16T09:33:09.557Z,17.27
2023-12-16T09:34:43.801Z,19.08
2023-12-16T09:36:16.250Z,21.55
2023-12-16T09:37:50.822Z,18.65
2023-12-16T09:39:25.117Z,15.82
2023-12-16T09:40:58.436Z,14.05
2023-12-16T09:42:31.198Z,12.35
2023-12-16T09:44:04.752Z,13.55
2023-12-16T09:45:37.401Z,13.32
2023-12-16T09:47:12.367Z,14.73
2023-12-16T09:48:44.765Z,13.27
2023-12-16T09:50:18.296Z,13.73
2023-12-16T09:51:50.543Z,11.10
2023-12-16T09:53:24.035Z,11.65
2023-12-16T09:54:57.651Z,15.05
2023-12-16T09:56:32.586Z,16.45
2023-12-16T09:58:06.743Z,12.43
2023-12-16T09:59:41.105Z,12.38
2023-12-16T10:01:13.866Z,13.55
2023-12-16T10:02:51.841Z,19.20
2023-12-16T10:04:26.819Z,11.98
2023-12-16T10:06:00.720Z,17.17
2023-12-16T10:07:33.054Z,17.30
2023-12-16T10:09:06.346Z,18.27
2023-12-16T10:10:39.990Z,15.32
2023-12-16T10:12:14.686Z,12.93
2023-12-16T10:13:57.364Z,13.07
2023-12-16T10:15:32.472Z,17.92
2023-12-16T10:17:05.451Z,19.17
2023-12-16T10:18:39.216Z,20.23
2023-12-16T10:20:11.521Z,15.02
2023-12-16T10:21:45.068Z,17.95
2023-12-16T10:23:17.293Z,14.95
2023-12-16T10:28:04.703Z,15.52
2023-12-16T10:29:36.988Z,14.25
2023-12-16T10:31:10.408Z,13.88
2023-12-16T10:32:42.935Z,9.13
2023-12-16T10:34:18.499Z,11.63
2023-12-16T10:35:51.343Z,33.45
2023-12-16T10:37:25.078Z,25.98
2023-12-16T10:38:57.660Z,12.02
2023-12-16T10:40:31.256Z,13.05
2023-12-16T10:42:04.352Z,9.75
2023-12-16T10:43:39.896Z,11.50
2023-12-16T10:45:13.180Z,11.48
2023-12-16T10:46:52.091Z,9.45
2023-12-16T10:48:28.750Z,9.77
2023-12-16T10:50:04.355Z,7.10
2023-12-16T10:51:43.645Z,8.30
2023-12-16T10:53:25.920Z,8.65
2023-12-16T10:55:03.668Z,8.25
2023-12-16T10:56:44.339Z,9.30
2023-12-16T10:58:22.401Z,9.23
2023-12-16T11:00:06.606Z,8.68
2023-12-16T11:01:42.520Z,7.10
2023-12-16T11:03:25.978Z,8.18
2023-12-16T11:05:06.038Z,11.85
2023-12-16T11:06:41.995Z,8.82
2023-12-16T11:08:15.160Z,15.48
2023-12-16T11:09:48.807Z,12.65
2023-12-16T11:11:21.895Z,14.55
2023-12-16T11:12:56.197Z,11.77
2023-12-16T11:14:30.605Z,12.77
2023-12-16T11:16:14.372Z,17.08
2023-12-16T11:17:50.594Z,14.00
2023-12-16T11:19:27.896Z,11.07
2023-12-16T11:21:06.103Z,13.15
2023-12-16T11:22:46.431Z,11.95
2023-12-16T11:24:19.889Z,11.20
2023-12-16T11:25:54.635Z,6.78
2023-12-16T11:27:30.263Z,7.20
2023-12-16T11:29:03.825Z,6.05
2023-12-16T11:30:37.183Z,6.65
2023-12-16T11:32:11.158Z,10.98
2023-12-16T11:33:45.603Z,10.55
2023-12-16T11:35:46.985Z,8.18
2023-12-16T11:37:45.007Z,10.20
2023-12-16T11:39:39.454Z,6.95
2023-12-16T11:41:13.641Z,8.73
2023-12-16T11:42:52.825Z,8.63
2023-12-16T11:44:52.367Z,8.57
2023-12-16T11:46:35.285Z,14.93
2023-12-16T11:48:11.231Z,20.15
2023-12-16T11:49:43.733Z,14.38
2023-12-16T11:51:16.891Z,14.82
2023-12-16T11:52:49.426Z,14.48
2023-12-16T11:54:23.956Z,15.40
2023-12-16T11:55:56.989Z,30.25
2023-12-16T11:57:30.708Z,20.73
2023-12-16T11:59:03.671Z,22.77
2023-12-16T12:00:37.107Z,16.95
2023-12-16T12:02:10.690Z,14.38
2023-12-16T12:03:44.597Z,14.02
2023-12-16T12:05:18.769Z,13.27
2023-12-16T12:06:51.256Z,13.98
2023-12-16T12:08:26.093Z,12.25
2023-12-16T12:10:00.742Z,10.50
2023-12-16T12:11:33.202Z,14.63
2023-12-16T12:13:06.441Z,15.30
2023-12-16T12:14:44.145Z,12.13
2023-12-16T12:16:16.498Z,11.35
2023-12-16T12:17:51.069Z,13.65
2023-12-16T12:19:25.274Z,15.02
2023-12-16T12:20:58.795Z,23.98
2023-12-16T12:22:33.067Z,25.52
2023-12-16T12:24:06.379Z,29.08
2023-12-16T12:25:39.954Z,58.80
2023-12-16T12:27:13.288Z,42.38
2023-12-16T12:28:56.483Z,27.35
2023-12-16T12:30:29.929Z,27.30
2023-12-16T12:32:06.686Z,25.20
2023-12-16T12:33:40.264Z,29.45
2023-12-16T12:35:14.106Z,29.70
2023-12-16T12:36:48.201Z,20.65
2023-12-16T12:38:20.842Z,24.35
2023-12-16T12:39:54.140Z,31.80
2023-12-16T12:41:26.290Z,17.23
2023-12-16T12:43:00.559Z,22.67
2023-12-16T12:44:36.191Z,18.98
2023-12-16T12:46:10.874Z,16.17
2023-12-16T12:47:43.514Z,14.90
2023-12-16T12:49:18.212Z,14.80
2023-12-16T12:51:05.211Z,22.70
2023-12-16T12:53:17.501Z,15.10
2023-12-16T12:54:44.597Z,16.20
2023-12-16T12:56:16.990Z,14.60
2023-12-16T12:57:51.523Z,12.90
2023-12-16T12:59:58.526Z,24.08
2023-12-16T13:01:17.828Z,24.80
2023-12-16T13:02:50.181Z,20.48
2023-12-16T13:04:23.446Z,22.00
2023-12-16T13:05:59.976Z,19.30
2023-12-16T13:07:35.476Z,20.45
2023-12-16T13:09:09.710Z,21.63
2023-12-16T13:10:43.706Z,20.23
2023-12-16T13:12:17.359Z,21.38
2023-12-16T13:13:49.963Z,17.83
2023-12-16T13:15:23.916Z,17.92
2023-12-16T13:16:56.171Z,14.52
2023-12-16T13:18:30.353Z,74.20
2023-12-16T13:20:04.360Z,16.55
2023-12-16T13:21:41.273Z,21.90
2023-12-16T13:23:14.390Z,59.72
2023-12-16T13:24:47.643Z,37.15
2023-12-16T13:26:21.191Z,33.35
2023-12-16T13:27:54.417Z,25.67
2023-12-16T13:29:26.842Z,18.40
2023-12-16T13:31:02.498Z,17.27
2023-12-16T13:32:36.355Z,24.25
2023-12-16T13:34:09.811Z,62.20
2023-12-16T13:35:42.240Z,42.65
2023-12-16T13:37:17.392Z,19.75
2023-12-16T13:38:49.813Z,17.85
2023-12-16T13:40:23.084Z,14.63
2023-12-16T13:41:56.383Z,31.80
2023-12-16T13:43:28.744Z,26.70
2023-12-16T13:45:02.146Z,34.28
2023-12-16T13:46:34.528Z,34.83
2023-12-16T13:48:08.027Z,30.10
2023-12-16T13:49:40.604Z,34.67
2023-12-16T13:51:13.992Z,29.88
2023-12-16T13:54:24.184Z,23.13
2023-12-16T13:55:56.463Z,31.95
2023-12-16T13:57:30.015Z,45.05
2023-12-16T13:59:02.274Z,37.10
2023-12-16T14:00:36.266Z,35.70
2023-12-16T14:02:08.525Z,37.80
2023-12-16T14:03:41.790Z,34.90
2023-12-16T14:05:14.202Z,37.17
2023-12-16T14:06:48.311Z,38.72
2023-12-16T14:08:22.056Z,24.45
2023-12-16T14:09:55.328Z,20.50
2023-12-16T14:11:27.556Z,19.83
2023-12-16T14:13:00.931Z,21.08
2023-12-16T14:14:33.453Z,27.15
2023-12-16T14:16:07.879Z,22.17
2023-12-16T14:17:40.289Z,23.55
2023-12-16T14:19:13.938Z,56.50
2023-12-16T14:20:46.423Z,12.32
2023-12-16T14:22:19.684Z,17.95
2023-12-16T14:23:53.648Z,22.42
2023-12-16T14:25:27.275Z,24.35
2023-12-16T14:26:59.536Z,29.42
2023-12-16T14:28:32.765Z,33.17
2023-12-16T14:30:06.700Z,30.58
2023-12-16T14:31:40.422Z,32.40
2023-12-16T14:33:13.279Z,29.65
2023-12-16T14:34:46.857Z,29.38
2023-12-16T14:36:19.266Z,29.70
2023-12-16T14:37:54.439Z,34.42
2023-12-16T14:39:28.703Z,41.28
2023-12-16T14:41:02.645Z,50.63
2023-12-16T14:42:34.942Z,47.47
2023-12-16T14:44:08.580Z,38.90
2023-12-16T14:45:41.127Z,29.60
2023-12-16T14:47:14.412Z,32.33
2023-12-16T14:48:46.981Z,33.88
2023-12-16T14:50:20.383Z,37.65
2023-12-16T14:51:52.835Z,35.20
2023-12-16T14:53:26.067Z,31.10
2023-12-16T14:54:59.958Z,27.58
2023-12-16T14:56:33.207Z,22.17
2023-12-16T14:58:06.983Z,18.45
2023-12-16T14:59:39.266Z,18.27
2023-12-16T15:01:12.827Z,17.50
2023-12-16T15:02:45.118Z,18.30
2023-12-16T15:04:18.501Z,20.67
2023-12-16T15:05:51.011Z,34.95
2023-12-16T15:07:24.537Z,51.53
2023-12-16T15:08:56.854Z,49.30
2023-12-16T15:10:32.437Z,26.58
2023-12-16T15:12:06.568Z,31.38
2023-12-16T15:13:40.397Z,34.22
2023-12-16T15:15:13.804Z,16.75
2023-12-16T15:16:47.041Z,17.08
2023-12-16T15:18:20.381Z,17.33
2023-12-16T15:19:53.317Z,20.70
2023-12-16T15:21:26.717Z,20.15
2023-12-16T15:22:58.973Z,24.98
2023-12-16T15:24:32.227Z,20.77
2023-12-16T15:26:06.959Z,23.55
2023-12-16T15:27:40.413Z,45.03
2023-12-16T15:29:12.909Z,42.47
2023-12-16T15:30:46.246Z,46.92
2023-12-16T15:32:19.588Z,43.35
2023-12-16T15:33:52.658Z,37.22
2023-12-16T15:35:26.094Z,35.15
2023-12-16T15:37:04.323Z,34.17
2023-12-16T15:38:42.103Z,29.02
2023-12-16T15:40:14.510Z,31.05
2023-12-16T15:41:49.981Z,37.03
2023-12-16T15:43:22.314Z,28.73
2023-12-16T15:44:55.705Z,29.25
2023-12-16T15:46:27.914Z,31.08
2023-12-16T15:48:01.460Z,33.78
2023-12-16T15:49:34.356Z,32.60
2023-12-16T15:51:08.854Z,24.33
2023-12-16T15:52:41.343Z,21.05
2023-12-16T15:54:15.768Z,20.35
2023-12-16T15:55:48.159Z,24.55
2023-12-16T15:57:24.249Z,25.13
2023-12-16T15:58:56.445Z,29.05
2023-12-16T16:00:29.751Z,28.98
2023-12-16T16:02:02.285Z,47.85
2023-12-16T16:03:35.598Z,43.63
2023-12-16T16:05:08.668Z,47.72
2023-12-16T16:06:42.067Z,43.03
2023-12-16T16:08:14.883Z,64.00
2023-12-16T16:09:48.270Z,53.60
2023-12-16T16:11:20.555Z,59.40
2023-12-16T16:12:55.485Z,56.25
2023-12-16T16:14:27.916Z,54.08
2023-12-16T16:16:01.525Z,58.03
2023-12-16T16:17:33.922Z,48.75
2023-12-16T16:19:07.712Z,37.25
2023-12-16T16:20:40.164Z,38.92
2023-12-16T16:22:15.180Z,50.35
2023-12-16T16:23:47.416Z,30.80
2023-12-16T16:25:20.777Z,24.00
2023-12-16T16:26:53.195Z,26.85
2023-12-16T16:28:27.848Z,28.00
2023-12-16T16:30:01.119Z,26.20
2023-12-16T16:31:37.466Z,26.58
2023-12-16T16:33:10.021Z,43.85
2023-12-16T16:34:43.436Z,49.63
2023-12-16T16:36:15.914Z,54.47
2023-12-16T16:37:49.311Z,65.72
2023-12-16T16:39:21.629Z,56.55
2023-12-16T16:40:56.226Z,57.08
2023-12-16T16:42:28.912Z,53.80
2023-12-16T16:44:03.589Z,52.50
2023-12-16T16:45:37.097Z,45.30
2023-12-16T16:47:09.335Z,44.67
2023-12-16T16:48:42.654Z,43.30
2023-12-16T16:50:15.232Z,50.55
2023-12-16T16:51:48.876Z,47.78
2023-12-16T16:53:21.120Z,45.47
2023-12-16T16:54:54.351Z,35.42
2023-12-16T16:56:26.666Z,38.75
2023-12-16T16:58:00.081Z,35.78
2023-12-16T16:59:33.667Z,31.13
2023-12-16T17:01:07.204Z,28.52
2023-12-16T17:02:40.247Z,29.88
2023-12-16T17:04:14.105Z,30.52
2023-12-16T17:05:46.568Z,27.20
2023-12-16T17:07:19.839Z,28.08
2023-12-16T17:08:52.311Z,25.25
2023-12-16T17:10:25.590Z,24.42
2023-12-16T17:11:58.022Z,23.58
2023-12-16T17:13:31.244Z,21.02
2023-12-16T17:15:05.489Z,31.85
2023-12-16T17:16:39.375Z,32.60
2023-12-16T17:18:13.169Z,19.20
2023-12-16T17:19:47.271Z,15.98
2023-12-16T17:21:19.639Z,14.40
2023-12-16T17:22:52.891Z,18.58
2023-12-16T17:24:25.347Z,18.30
2023-12-16T17:26:03.764Z,25.35
2023-12-16T17:27:36.255Z,35.70
2023-12-16T17:29:09.898Z,47.00
2023-12-16T17:30:43.955Z,57.67
2023-12-16T17:32:17.381Z,31.63
2023-12-16T17:33:49.868Z,14.88
2023-12-16T17:35:23.207Z,26.80
2023-12-16T17:36:55.888Z,37.25
2023-12-16T17:38:29.029Z,74.88
2023-12-16T17:40:01.272Z,55.17
2023-12-16T17:41:35.858Z,49.28
2023-12-16T17:43:09.190Z,41.95
2023-12-16T17:44:42.525Z,39.53
2023-12-16T17:46:17.203Z,35.75
2023-12-16T17:47:50.603Z,34.05
2023-12-16T17:49:23.848Z,34.85
2023-12-16T17:50:57.166Z,37.28
2023-12-16T17:52:29.646Z,30.52
2023-12-16T17:54:02.985Z,31.33
2023-12-16T17:55:35.490Z,35.60
2023-12-16T17:57:08.845Z,49.63
2023-12-16T17:58:42.465Z,41.53
2023-12-16T18:00:15.462Z,66.13
2023-12-16T18:01:50.494Z,42.53
2023-12-16T18:03:22.834Z,34.28
2023-12-16T18:04:56.581Z,37.50
2023-12-16T18:06:28.981Z,35.90
2023-12-16T18:08:06.665Z,39.05
2023-12-16T18:09:38.925Z,43.53
2023-12-16T18:11:12.384Z,49.40
2023-12-16T18:12:44.581Z,47.83
2023-12-16T18:14:19.097Z,50.30
2023-12-16T18:15:51.465Z,49.55
2023-12-16T18:17:26.884Z,56.33
2023-12-16T18:18:59.161Z,31.75
2023-12-16T18:20:32.616Z,26.10
2023-12-16T18:22:05.061Z,27.40
2023-12-16T18:23:38.546Z,32.28
2023-12-16T18:25:10.832Z,34.97
2023-12-16T18:26:44.899Z,35.67
2023-12-16T18:28:17.072Z,32.97
2023-12-16T18:29:50.740Z,26.05
2023-12-16T18:31:24.268Z,28.85
2023-12-16T18:33:06.322Z,32.97
2023-12-16T18:34:39.647Z,43.90
2023-12-16T18:36:12.678Z,40.80
2023-12-16T18:37:46.036Z,40.55
2023-12-16T18:39:19.228Z,26.65
2023-12-16T18:40:52.416Z,32.55
2023-12-16T18:42:25.930Z,30.20
2023-12-16T18:43:59.666Z,27.27
2023-12-16T18:45:33.786Z,33.45
2023-12-16T18:47:06.281Z,42.22
2023-12-16T18:48:42.068Z,31.55
2023-12-16T18:50:15.357Z,38.80
2023-12-16T18:51:48.680Z,35.05
2023-12-16T18:53:20.964Z,36.20
2023-12-16T18:54:54.311Z,32.80
2023-12-16T18:56:26.765Z,36.67
2023-12-16T18:58:00.092Z,37.25
2023-12-16T18:59:32.529Z,33.00
2023-12-16T19:01:06.632Z,34.28
2023-12-16T19:02:39.096Z,37.22
2023-12-16T19:04:13.949Z,35.38
2023-12-16T19:05:47.397Z,31.95
2023-12-16T19:07:19.900Z,39.00
2023-12-16T19:08:53.490Z,35.83
2023-12-16T19:10:25.885Z,37.75
2023-12-16T19:11:59.173Z,47.22
2023-12-16T19:13:31.466Z,43.30
2023-12-16T19:15:05.552Z,46.85
2023-12-16T19:16:37.833Z,26.98
2023-12-16T19:18:11.237Z,26.70
2023-12-16T19:19:46.242Z,35.00
2023-12-16T19:21:18.970Z,30.15
2023-12-16T19:22:54.115Z,26.75
2023-12-16T19:24:26.296Z,28.38
2023-12-16T19:26:00.102Z,30.08
2023-12-16T19:27:33.461Z,29.20
2023-12-16T19:29:06.844Z,25.60
2023-12-16T19:30:39.063Z,22.40
2023-12-16T19:32:12.430Z,24.20
2023-12-16T19:33:48.563Z,26.23
2023-12-16T19:35:23.374Z,28.77
2023-12-16T19:36:55.736Z,32.75
2023-12-16T19:38:29.135Z,28.10
2023-12-16T19:40:01.480Z,29.35
2023-12-16T19:41:34.798Z,26.20
2023-12-16T19:43:07.165Z,23.73
2023-12-16T19:44:43.044Z,25.50
2023-12-16T19:46:15.420Z,35.80
2023-12-16T19:47:48.856Z,31.05
2023-12-16T19:49:22.349Z,35.72
2023-12-16T19:50:56.231Z,29.52
2023-12-16T19:52:29.660Z,31.52
2023-12-16T19:54:02.132Z,34.35
2023-12-16T19:55:37.225Z,32.05
2023-12-16T19:57:09.646Z,41.30
2023-12-16T19:58:43.855Z,32.58
2023-12-16T20:00:17.356Z,30.35
2023-12-16T20:01:51.024Z,33.90
2023-12-16T20:03:23.365Z,54.92
2023-12-16T20:04:56.749Z,60.88
2023-12-16T20:06:30.482Z,57.67
2023-12-16T20:08:03.782Z,41.47
2023-12-16T20:09:36.172Z,39.63
2023-12-16T20:11:12.537Z,35.13
2023-12-16T20:12:45.507Z,55.97
2023-12-16T20:14:18.839Z,34.28
2023-12-16T20:15:51.301Z,32.63
2023-12-16T20:17:25.290Z,22.95
2023-12-16T20:18:58.330Z,21.58
2023-12-16T20:20:32.144Z,19.20